FOLSOM LAKE (FOL)

Elevation: 466' · AMERICAN R basin · Operator: US Bureau of Reclamation

Provisional data, subject to change.
Query executed Monday at 23:30:48   clock

Select a sensor type for a plot of data.
Note: Reservoir Flows are daily averages.

Earlier

Date RES ELE    STORAGE    RES CHG    TOC STO    ABV TOC    OUTFLOW    INFLOW    EVAP    FNF    RIV REL    PPT INC    SPILL    DC PUMP    DIS PWR   
 FEET   AF   AF   AF   AF   CFS   CFS   CFS   CFS   CFS   INCHES   CFS   CFS   CFS  
01/10/2016 380.75 265018 2981 577000 -311982 521 2027 3 1559 0 0.01 0 51 470
01/11/2016 381.21 267439 2421 577000 -309561 814 2042 7 1420 0 0.00 0 52 762
01/12/2016 381.66 269825 2386 577000 -307175 582 1792 7 1408 0 0.00 0 53 529
01/13/2016 382.07 272004 2179 577000 -304996 460 1559 0 2129 0 0.18 0 54 406
01/14/2016 382.64 275066 3062 577000 -301934 564 2108 0 2080 0 0.03 0 48 516
01/15/2016 383.66 280592 5526 577000 -- 324 3112 2 3095 0 0.10 0 49 275
01/16/2016 384.79 286797 6205 577000 -- 348 3481 5 4109 0 0.15 0 52 296
01/17/2016 386.08 293993 7196 577000 -- 516 4181 37 4320 0 0.75 0 55 461
01/18/2016 389.12 311439 17446 577000 -265561 622 9434 16 10013 0 0.60 0 56 566
01/19/2016 391.72 326903 15464 577000 -250097 422 8220 2 9901 0 0.65 0 54 368
01/20/2016 394.27 342548 15645 577000 -234452 489 8381 4 9100 0 0.00 0 37 452
01/21/2016 395.84 352415 9867 577000 -224585 786 5772 11 6336 0 0.00 0 43 743
01/22/2016 397.16 360850 8435 577000 -- 311 4575 11 5081 0 0.00 0 47 264
01/23/2016 399.31 374855 14005 577000 -- 449 7510 0 9815 0 0.33 0 55 394
01/24/2016 401.38 388656 13801 577000 -188344 809 7774 7 8628 0 0.00 0 66 743
01/25/2016 402.83 398523 9867 577000 -178477 780 5764 9 6238 0 0.00 0 80 700
01/26/2016 403.91 405982 7459 577000 -171018 876 4644 7 4494 0 0.00 0 8 868
01/27/2016 404.78 412065 6083 577000 -164935 1279 4360 14 4173 0 0.00 0 34 1245
01/28/2016 405.65 418207 6142 577000 -158793 756 3858 5 3760 0 0.03 0 58 698
01/29/2016 407.12 428716 10509 577000 -- 749 6047 0 12588 0 0.46 0 53 696
01/30/2016 416.49 499707 70991 577000 -- 524 36323 8 51592 0 0.07 0 54 470
01/31/2016 420.07 528563 28856 577000 -48437 540 15102 14 19272 0 0.03 0 53 487
02/01/2016 422.11 545444 16881 577000 -31556 1029 9576 36 -- 0 0.00 0 52 977
02/02/2016 423.61 558062 12618 577000 -18938 967 7328 0 -- 0 0.09 0 49 918
02/03/2016 424.85 568613 10551 577000 -8387 856 6184 9 -- 0 0.00 0 47 809
02/04/2016 425.83 577037 8424 577000 37 1010 5271 14 -- 0 0.00 0 45 965
02/05/2016 426.69 584489 7452 577000 -- 1385 5142 0 -- 0 0.00 0 46 1339
02/06/2016 427.44 591029 6540 577000 -- 1407 4722 18 -- 0 0.00 0 49 1358
02/07/2016 428.00 595930 4901 577000 18930 1822 4308 15 -- 0 0.00 0 55 1767
02/08/2016 -- -- -- -- -- -- -- -- -- -- -- -- -- --

Later | Latest

Warning! This data is preliminary and subject to revision.

Show FOL Map | Plot FOL Data | 1 Month FOL Data | Real-Time FOL Data | FOL Info